EDW65V VCBI-LSZH
Flight info
| Callsign | EDW65V |
|---|---|
| Flight time | N/A |
| Altitude | 36000 |
| Route | DEMON1D DEMON R461 KABSO/N0495F370 R461 BBB G208 APANO/N0497F360 G208 SASRO/N0491F380 G208 KE B210 NH/N0490F370 G326 LUBNA DCT 2925N06959E/N0485F380 DCT HILAL G202 ZB L750 RANAH A846 ABDAN A909 TUGTA/N0482F400 A909 RODAR N644 ADEKI DCT BADIR DCT TETRO DCT SARPI UM10 OLUPO DCT CRM UL746 ODERO DCT LUGEB DCT NERDI DCT EBORO DCT GOTAR DCT ERKIR DCT KPT L856 NEGRA |
| Aircraft | A359/H-SABDE2E3GHIJ2J3J4J5M1P2RWXYZ/LB1D1 |
Departure
| Time | 2026-04-25 09:29 |
|---|---|
| Airport | Bandaranaike International Colombo Airport (VCBI) |
Arrival
| Time | N/A |
|---|---|
| Airport | Zürich Airport (LSZH) |
| Time | Latitude | Longitude | Altitude | Speed | Heading |
|---|---|---|---|---|---|
| 2026-04-25 08:42 | 7.17590 | 79.88409 | 40 ft | 0 kts | 43° |
| 2026-04-25 09:17 | 7.17582 | 79.88401 | 40 ft | 3 kts | 32° |
| 2026-04-25 09:17 | 7.17568 | 79.88392 | 37 ft | 2 kts | 37° |
| 2026-04-25 09:17 | 7.17553 | 79.88383 | 37 ft | 3 kts | 7° |
| 2026-04-25 09:18 | 7.17537 | 79.88385 | 35 ft | 3 kts | 319° |
| 2026-04-25 09:18 | 7.17524 | 79.88400 | 36 ft | 3 kts | 306° |
| 2026-04-25 09:18 | 7.17517 | 79.88409 | 39 ft | 1 kts | 307° |
| 2026-04-25 09:18 | 7.17516 | 79.88411 | 39 ft | 0 kts | 307° |
| 2026-04-25 09:22 | 7.17518 | 79.88408 | 38 ft | 2 kts | 307° |
| 2026-04-25 09:22 | 7.17537 | 79.88383 | 35 ft | 7 kts | 307° |
| 2026-04-25 09:23 | 7.17575 | 79.88332 | 40 ft | 11 kts | 307° |
| 2026-04-25 09:23 | 7.17631 | 79.88272 | 40 ft | 12 kts | 335° |
| 2026-04-25 09:23 | 7.17703 | 79.88295 | 40 ft | 12 kts | 34° |
| 2026-04-25 09:23 | 7.17773 | 79.88350 | 40 ft | 14 kts | 39° |
| 2026-04-25 09:24 | 7.17852 | 79.88415 | 40 ft | 15 kts | 39° |
| 2026-04-25 09:24 | 7.17941 | 79.88483 | 40 ft | 17 kts | 36° |
| 2026-04-25 09:24 | 7.18040 | 79.88556 | 40 ft | 18 kts | 36° |
| 2026-04-25 09:24 | 7.18146 | 79.88635 | 40 ft | 19 kts | 36° |
| 2026-04-25 09:25 | 7.18254 | 79.88717 | 41 ft | 20 kts | 38° |
| 2026-04-25 09:25 | 7.18364 | 79.88801 | 40 ft | 20 kts | 37° |
| 2026-04-25 09:25 | 7.18473 | 79.88883 | 41 ft | 20 kts | 37° |
| 2026-04-25 09:25 | 7.18586 | 79.88971 | 42 ft | 20 kts | 38° |
| 2026-04-25 09:26 | 7.18700 | 79.89058 | 65 ft | 21 kts | 37° |
| 2026-04-25 09:26 | 7.18816 | 79.89146 | 42 ft | 21 kts | 37° |
| 2026-04-25 09:26 | 7.18933 | 79.89235 | 42 ft | 21 kts | 37° |
| 2026-04-25 09:26 | 7.19052 | 79.89327 | 40 ft | 22 kts | 37° |
| 2026-04-25 09:27 | 7.19149 | 79.89402 | 40 ft | 12 kts | 37° |
| 2026-04-25 09:27 | 7.19219 | 79.89405 | 42 ft | 11 kts | 328° |
| 2026-04-25 09:27 | 7.19270 | 79.89346 | 41 ft | 12 kts | 306° |
| 2026-04-25 09:27 | 7.19283 | 79.89282 | 41 ft | 9 kts | 236° |
| 2026-04-25 09:28 | 7.19237 | 79.89240 | 42 ft | 16 kts | 218° |
| 2026-04-25 09:28 | 7.18951 | 79.89022 | 44 ft | 90 kts | 217° |
| 2026-04-25 09:28 | 7.18250 | 79.88490 | 41 ft | 160 kts | 217° |
| 2026-04-25 09:28 | 7.17280 | 79.87767 | 589 ft | 174 kts | 216° |
| 2026-04-25 09:29 | 7.16280 | 79.87086 | 1404 ft | 180 kts | 215° |
| 2026-04-25 09:29 | 7.15596 | 79.86562 | 1509 ft | 193 kts | 225° |
| 2026-04-25 09:29 | 7.14866 | 79.85386 | 1613 ft | 207 kts | 251° |
| 2026-04-25 09:29 | 7.14704 | 79.83893 | 1695 ft | 225 kts | 274° |
| 2026-04-25 09:30 | 7.15037 | 79.82298 | 1936 ft | 241 kts | 286° |
| 2026-04-25 09:30 | 7.15787 | 79.80754 | 2202 ft | 252 kts | 306° |
| 2026-04-25 09:30 | 7.17009 | 79.79450 | 2512 ft | 261 kts | 318° |
| 2026-04-25 09:30 | 7.18452 | 79.78306 | 2857 ft | 268 kts | 323° |
| 2026-04-25 09:31 | 7.19994 | 79.77225 | 3270 ft | 272 kts | 326° |
| 2026-04-25 09:31 | 7.21587 | 79.76175 | 3720 ft | 275 kts | 327° |
| 2026-04-25 09:31 | 7.23207 | 79.75145 | 4212 ft | 276 kts | 329° |
| 2026-04-25 09:31 | 7.24857 | 79.74139 | 4680 ft | 278 kts | 330° |
| 2026-04-25 09:32 | 7.26524 | 79.73134 | 5137 ft | 281 kts | 330° |
| 2026-04-25 09:32 | 7.28207 | 79.72115 | 5616 ft | 283 kts | 330° |
| 2026-04-25 09:32 | 7.29903 | 79.71085 | 6069 ft | 286 kts | 330° |
| 2026-04-25 09:32 | 7.31611 | 79.70044 | 6515 ft | 288 kts | 330° |
| 2026-04-25 09:33 | 7.33331 | 79.68997 | 6977 ft | 289 kts | 330° |
| 2026-04-25 09:33 | 7.35056 | 79.67945 | 7426 ft | 291 kts | 330° |
| 2026-04-25 09:33 | 7.36790 | 79.66887 | 7917 ft | 292 kts | 330° |
| 2026-04-25 09:33 | 7.38533 | 79.65823 | 8380 ft | 294 kts | 330° |
| 2026-04-25 09:34 | 7.40290 | 79.64751 | 8823 ft | 296 kts | 329° |
| 2026-04-25 09:34 | 7.42055 | 79.63675 | 9304 ft | 298 kts | 329° |
| 2026-04-25 09:34 | 7.43835 | 79.62587 | 9736 ft | 300 kts | 329° |
| 2026-04-25 09:34 | 7.45627 | 79.61493 | 10151 ft | 304 kts | 329° |
| 2026-04-25 09:35 | 7.47465 | 79.60370 | 10344 ft | 315 kts | 329° |
| 2026-04-25 09:35 | 7.49366 | 79.59208 | 10510 ft | 326 kts | 330° |
| 2026-04-25 09:35 | 7.51336 | 79.58005 | 10682 ft | 336 kts | 330° |
| 2026-04-25 09:35 | 7.53368 | 79.56763 | 10866 ft | 347 kts | 329° |
| 2026-04-25 09:36 | 7.55432 | 79.55501 | 11029 ft | 357 kts | 329° |
| 2026-04-25 09:36 | 7.57582 | 79.54188 | 11185 ft | 366 kts | 329° |
| 2026-04-25 09:36 | 7.59811 | 79.52825 | 11366 ft | 375 kts | 329° |